createdAt,value
2019-06-20T00:02:24.363Z,6.15
2019-06-20T00:05:27.663Z,5.83
2019-06-20T00:08:32.600Z,5.40
2019-06-20T00:11:35.896Z,6.15
2019-06-20T00:14:38.999Z,5.35
2019-06-20T00:17:42.216Z,5.10
2019-06-20T00:20:45.455Z,5.25
2019-06-20T00:23:48.608Z,5.33
2019-06-20T00:26:51.676Z,6.20
2019-06-20T00:29:54.899Z,6.08
2019-06-20T00:32:57.996Z,6.50
2019-06-20T00:36:01.052Z,6.30
2019-06-20T00:39:06.095Z,6.83
2019-06-20T00:42:09.890Z,7.00
2019-06-20T00:45:15.796Z,6.40
2019-06-20T00:48:18.985Z,6.80
2019-06-20T00:51:22.331Z,7.72
2019-06-20T00:54:25.482Z,5.90
2019-06-20T00:57:29.464Z,6.33
2019-06-20T01:00:32.655Z,6.22
2019-06-20T01:03:36.095Z,6.20
2019-06-20T01:06:39.263Z,4.08
2019-06-20T01:09:42.515Z,3.60
2019-06-20T01:12:45.701Z,3.77
2019-06-20T01:15:48.970Z,3.20
2019-06-20T01:18:52.270Z,3.05
2019-06-20T01:21:55.327Z,3.05
2019-06-20T01:24:58.429Z,3.00
2019-06-20T01:28:01.573Z,2.95
2019-06-20T01:31:04.807Z,2.85
2019-06-20T01:34:08.034Z,2.30
2019-06-20T01:37:11.195Z,3.00
2019-06-20T01:40:14.607Z,2.27
2019-06-20T01:43:17.751Z,2.25
2019-06-20T01:46:20.889Z,2.60
2019-06-20T01:49:24.420Z,2.27
2019-06-20T01:52:27.492Z,2.77
2019-06-20T01:55:30.675Z,2.62
2019-06-20T01:58:33.803Z,2.60
2019-06-20T02:01:37.062Z,2.10
2019-06-20T02:04:40.363Z,2.42
2019-06-20T02:07:45.185Z,2.50
2019-06-20T02:10:48.441Z,2.27
2019-06-20T02:14:06.474Z,2.60
2019-06-20T02:16:56.633Z,2.60
2019-06-20T02:19:59.727Z,2.70
2019-06-20T02:23:03.051Z,2.30
2019-06-20T02:26:06.326Z,2.70
2019-06-20T02:29:09.445Z,2.20
2019-06-20T02:32:12.501Z,2.52
2019-06-20T02:35:15.602Z,2.40
2019-06-20T02:38:20.526Z,2.70
2019-06-20T02:41:23.819Z,2.62
2019-06-20T02:44:30.531Z,2.87
2019-06-20T02:47:32.776Z,2.60
2019-06-20T02:50:35.876Z,2.80
2019-06-20T02:53:39.095Z,2.50
2019-06-20T02:56:42.164Z,2.92
2019-06-20T02:59:45.251Z,3.20
2019-06-20T03:02:49.555Z,3.10
2019-06-20T03:05:52.670Z,3.30
2019-06-20T03:08:55.789Z,3.40
2019-06-20T03:11:58.847Z,3.12
2019-06-20T03:15:03.584Z,3.22
2019-06-20T03:19:14.139Z,3.35
2019-06-20T03:22:19.217Z,3.08
2019-06-20T03:25:22.323Z,3.40
2019-06-20T03:28:25.591Z,3.55
2019-06-20T03:31:28.712Z,3.55
2019-06-20T03:34:31.911Z,3.62
2019-06-20T03:37:34.931Z,3.40
2019-06-20T03:40:37.997Z,3.30
2019-06-20T03:43:41.048Z,3.33
2019-06-20T03:46:44.142Z,3.08
2019-06-20T03:49:47.177Z,3.35
2019-06-20T03:53:00.709Z,3.58
2019-06-20T03:56:03.887Z,3.62
2019-06-20T03:59:06.991Z,3.30
2019-06-20T04:02:10.258Z,3.10
2019-06-20T04:05:13.411Z,3.30
2019-06-20T04:08:16.443Z,3.55
2019-06-20T04:11:19.540Z,3.10
2019-06-20T04:14:22.754Z,3.67
2019-06-20T04:17:25.919Z,3.20
2019-06-20T04:20:29.086Z,3.40
2019-06-20T04:23:32.215Z,3.55
2019-06-20T04:26:35.520Z,3.77
2019-06-20T04:29:38.734Z,3.60
2019-06-20T04:32:41.834Z,3.98
2019-06-20T04:35:44.918Z,3.75
2019-06-20T04:38:49.693Z,3.65
2019-06-20T04:41:54.656Z,3.40
2019-06-20T04:44:59.595Z,3.25
2019-06-20T04:48:02.831Z,3.60
2019-06-20T04:51:05.987Z,3.33
2019-06-20T04:54:09.183Z,3.52
2019-06-20T04:57:12.275Z,3.37
2019-06-20T05:00:15.496Z,3.47
2019-06-20T05:03:18.570Z,3.70
2019-06-20T05:06:21.658Z,3.75
2019-06-20T05:09:24.976Z,3.60
2019-06-20T05:12:28.270Z,3.65
2019-06-20T05:15:31.373Z,3.77
2019-06-20T05:18:34.445Z,3.50
2019-06-20T05:21:37.524Z,3.72
2019-06-20T05:24:40.647Z,3.50
2019-06-20T05:27:43.712Z,3.45
2019-06-20T05:30:47.015Z,3.85
2019-06-20T05:33:50.104Z,3.80
2019-06-20T05:36:53.398Z,3.72
2019-06-20T05:39:56.604Z,3.22
2019-06-20T05:42:59.791Z,3.30
2019-06-20T05:46:10.757Z,3.35
2019-06-20T05:49:09.759Z,3.30
2019-06-20T05:52:12.859Z,2.80
2019-06-20T05:55:15.979Z,3.45
2019-06-20T05:58:19.257Z,2.92
2019-06-20T06:01:22.443Z,2.67
2019-06-20T06:04:26.365Z,3.15
2019-06-20T06:07:29.556Z,2.67
2019-06-20T06:10:32.658Z,2.60
2019-06-20T06:13:35.961Z,2.67
2019-06-20T06:16:39.170Z,2.90
2019-06-20T06:19:42.313Z,2.98
2019-06-20T06:22:45.431Z,2.87
2019-06-20T06:25:50.124Z,3.15
2019-06-20T06:28:53.219Z,3.40
2019-06-20T06:31:56.431Z,3.20
2019-06-20T06:34:59.542Z,3.62
2019-06-20T06:38:02.734Z,4.53
2019-06-20T06:41:05.972Z,4.12
2019-06-20T06:44:09.122Z,3.72
2019-06-20T06:47:12.363Z,3.58
2019-06-20T06:50:15.935Z,4.05
2019-06-20T06:53:19.011Z,3.67
2019-06-20T06:56:22.136Z,4.10
2019-06-20T06:59:25.403Z,4.20
2019-06-20T07:02:28.663Z,4.03
2019-06-20T07:05:31.835Z,5.33
2019-06-20T07:08:35.179Z,4.30
2019-06-20T07:11:38.472Z,3.55
2019-06-20T07:14:42.844Z,3.72
2019-06-20T07:17:48.022Z,3.60
2019-06-20T07:20:51.183Z,3.30
2019-06-20T07:23:54.591Z,3.10
2019-06-20T07:26:57.796Z,2.70
2019-06-20T07:30:00.978Z,3.67
2019-06-20T07:33:04.571Z,3.27
2019-06-20T07:36:07.935Z,3.55
2019-06-20T07:39:11.407Z,3.40
2019-06-20T07:42:14.678Z,3.08
2019-06-20T07:45:27.033Z,3.10
2019-06-20T07:48:29.119Z,3.22
2019-06-20T07:51:32.347Z,3.30
2019-06-20T07:54:35.415Z,3.00
2019-06-20T07:57:38.667Z,3.22
2019-06-20T08:00:41.911Z,2.67
2019-06-20T08:03:45.311Z,2.90
2019-06-20T08:06:48.536Z,2.60
2019-06-20T08:09:51.622Z,2.65
2019-06-20T08:12:54.793Z,2.67
2019-06-20T08:15:57.977Z,2.83
2019-06-20T08:19:00.975Z,2.98
2019-06-20T08:22:04.224Z,2.45
2019-06-20T08:25:08.076Z,3.25
2019-06-20T08:28:11.179Z,2.83
2019-06-20T08:31:14.395Z,2.87
2019-06-20T08:34:17.460Z,3.20
2019-06-20T08:37:23.429Z,3.30
2019-06-20T08:40:27.799Z,2.77
2019-06-20T08:43:31.032Z,3.40
2019-06-20T08:46:34.672Z,2.90
2019-06-20T08:49:37.731Z,2.98
2019-06-20T08:52:40.935Z,2.87
2019-06-20T08:55:44.123Z,2.85
2019-06-20T08:58:47.124Z,3.20
2019-06-20T09:01:50.243Z,2.83
2019-06-20T09:04:55.195Z,3.10
2019-06-20T09:08:00.404Z,2.90
2019-06-20T09:11:04.030Z,2.72
2019-06-20T09:14:07.312Z,2.85
2019-06-20T09:17:10.387Z,3.05
2019-06-20T09:20:13.984Z,2.60
2019-06-20T09:23:17.084Z,2.60
2019-06-20T09:26:20.208Z,2.83
2019-06-20T09:29:23.367Z,2.90
2019-06-20T09:32:26.592Z,2.37
2019-06-20T09:35:29.752Z,2.40
2019-06-20T09:38:32.861Z,2.52
2019-06-20T09:41:36.031Z,2.40
2019-06-20T09:44:39.251Z,2.17
2019-06-20T09:47:44.119Z,2.27
2019-06-20T09:50:49.398Z,2.37
2019-06-20T09:53:52.107Z,2.40
2019-06-20T09:56:56.898Z,2.45
2019-06-20T10:00:09.571Z,2.40
2019-06-20T10:03:07.677Z,2.40
2019-06-20T10:06:14.349Z,2.87
2019-06-20T10:09:16.587Z,2.75
2019-06-20T10:12:19.879Z,2.60
2019-06-20T10:15:24.358Z,2.90
2019-06-20T10:18:27.399Z,3.00
2019-06-20T10:21:30.583Z,3.00
2019-06-20T10:24:33.897Z,2.92
2019-06-20T10:27:36.979Z,2.80
2019-06-20T10:30:39.815Z,2.87
2019-06-20T10:33:45.160Z,2.80
2019-06-20T10:36:48.153Z,3.05
2019-06-20T10:39:52.503Z,2.85
2019-06-20T10:42:56.920Z,3.02
2019-06-20T10:46:00.329Z,2.90
2019-06-20T10:49:04.932Z,3.08
2019-06-20T10:52:09.099Z,3.55
2019-06-20T10:55:12.380Z,2.95
2019-06-20T10:58:15.599Z,2.72
2019-06-20T11:01:20.467Z,2.90
2019-06-20T11:04:23.529Z,3.20
2019-06-20T11:07:27.147Z,3.52
2019-06-20T11:10:31.321Z,2.60
2019-06-20T11:13:34.603Z,3.20
2019-06-20T11:16:38.682Z,3.20
2019-06-20T11:19:43.739Z,3.25
2019-06-20T11:22:47.768Z,2.50
2019-06-20T11:25:51.095Z,2.70
2019-06-20T11:28:54.209Z,2.80
2019-06-20T11:31:57.377Z,3.12
2019-06-20T11:35:00.562Z,2.85
2019-06-20T11:38:04.796Z,2.80
2019-06-20T11:41:07.930Z,2.90
2019-06-20T11:44:11.206Z,2.50
2019-06-20T11:47:14.503Z,2.25
2019-06-20T11:50:18.148Z,2.42
2019-06-20T11:53:21.411Z,2.50
2019-06-20T11:56:24.481Z,2.67
2019-06-20T11:59:27.674Z,1.80
2019-06-20T12:02:30.888Z,2.33
2019-06-20T12:05:33.970Z,1.98
2019-06-20T12:08:39.108Z,2.00
2019-06-20T12:11:42.395Z,2.35
2019-06-20T12:14:46.742Z,2.20
2019-06-20T12:17:50.196Z,1.90
2019-06-20T12:20:53.515Z,1.92
2019-06-20T12:23:56.745Z,2.10
2019-06-20T12:26:59.807Z,1.77
2019-06-20T12:30:03.306Z,1.77
2019-06-20T12:33:06.636Z,1.80
2019-06-20T12:36:09.799Z,1.98
2019-06-20T12:39:12.997Z,1.80
2019-06-20T12:42:17.827Z,1.50
2019-06-20T12:45:21.054Z,1.85
2019-06-20T12:48:24.408Z,1.57
2019-06-20T12:51:27.617Z,1.62
2019-06-20T12:54:30.919Z,1.67
2019-06-20T12:57:34.207Z,1.60
2019-06-20T13:00:39.100Z,1.47
2019-06-20T13:03:42.872Z,1.62
2019-06-20T13:06:46.945Z,1.37
2019-06-20T13:09:50.083Z,2.20
2019-06-20T13:12:53.235Z,2.40
2019-06-20T13:15:56.571Z,1.98
2019-06-20T13:19:11.411Z,1.77
2019-06-20T13:22:14.636Z,1.70
2019-06-20T13:25:17.823Z,1.55
2019-06-20T13:28:21.045Z,1.98
2019-06-20T13:31:24.105Z,2.02
2019-06-20T13:34:27.407Z,1.82
2019-06-20T13:37:30.683Z,1.95
2019-06-20T13:40:33.911Z,1.90
2019-06-20T13:43:36.993Z,1.80
2019-06-20T13:46:42.992Z,2.20
2019-06-20T13:49:47.690Z,1.92
2019-06-20T13:52:51.461Z,1.60
2019-06-20T13:55:54.796Z,1.90
2019-06-20T13:58:57.932Z,1.80
2019-06-20T14:02:06.795Z,2.25
2019-06-20T14:05:07.458Z,2.20
2019-06-20T14:08:10.667Z,2.05
2019-06-20T14:11:13.831Z,1.90
2019-06-20T14:14:16.932Z,2.00
2019-06-20T14:17:20.025Z,2.30
2019-06-20T14:20:31.172Z,1.70
2019-06-20T14:23:34.296Z,1.87
2019-06-20T14:26:39.333Z,1.80
2019-06-20T14:29:43.725Z,2.10
2019-06-20T14:32:47.572Z,1.90
2019-06-20T14:35:51.372Z,1.98
2019-06-20T14:38:54.471Z,1.85
2019-06-20T14:41:57.664Z,1.80
2019-06-20T14:45:00.890Z,1.98
2019-06-20T14:48:04.145Z,2.10
2019-06-20T14:51:08.581Z,2.30
2019-06-20T14:54:11.831Z,2.12
2019-06-20T14:57:14.981Z,2.10
2019-06-20T15:00:19.864Z,2.20
2019-06-20T15:03:22.995Z,2.35
2019-06-20T15:06:26.107Z,2.30
2019-06-20T15:09:29.419Z,2.10
2019-06-20T15:12:32.480Z,2.15
2019-06-20T15:15:35.640Z,1.95
2019-06-20T15:18:38.817Z,2.10
2019-06-20T15:21:41.976Z,2.33
2019-06-20T15:24:48.562Z,2.27
2019-06-20T15:27:53.423Z,3.15
2019-06-20T15:30:57.310Z,2.25
2019-06-20T15:34:01.445Z,2.10
2019-06-20T15:37:06.474Z,1.98
2019-06-20T15:40:10.091Z,2.02
2019-06-20T15:43:14.367Z,2.22
2019-06-20T15:46:17.636Z,2.15
2019-06-20T15:49:20.912Z,1.95
2019-06-20T15:52:24.063Z,2.00
2019-06-20T15:55:27.400Z,2.25
2019-06-20T15:58:30.447Z,2.10
2019-06-20T16:01:33.663Z,1.70
2019-06-20T16:04:36.968Z,1.90
2019-06-20T16:07:40.163Z,2.00
2019-06-20T16:10:43.290Z,1.92
2019-06-20T16:13:50.223Z,1.57
2019-06-20T16:16:54.503Z,1.77
2019-06-20T16:19:57.898Z,1.75
2019-06-20T16:23:00.928Z,2.00
2019-06-20T16:26:04.060Z,1.60
2019-06-20T16:29:07.150Z,1.80
2019-06-20T16:32:10.220Z,1.80
2019-06-20T16:35:13.049Z,1.70
2019-06-20T16:38:15.791Z,2.20
2019-06-20T16:41:18.714Z,1.77
2019-06-20T16:44:21.918Z,1.72
2019-06-20T16:47:24.827Z,1.70
2019-06-20T16:50:27.662Z,1.67
2019-06-20T16:53:30.472Z,1.80
2019-06-20T16:56:33.211Z,1.60
2019-06-20T16:59:36.000Z,2.08
2019-06-20T17:02:38.792Z,1.60
2019-06-20T17:05:41.578Z,2.10
2019-06-20T17:08:44.448Z,1.82
2019-06-20T17:11:47.210Z,2.15
2019-06-20T17:14:50.001Z,2.08
2019-06-20T17:17:52.855Z,1.80
2019-06-20T17:20:55.637Z,2.87
2019-06-20T17:23:58.383Z,2.20
2019-06-20T17:27:01.151Z,1.92
2019-06-20T17:30:05.749Z,2.15
2019-06-20T17:33:08.798Z,2.12
2019-06-20T17:36:18.191Z,2.05
2019-06-20T17:39:16.215Z,2.22
2019-06-20T17:42:19.391Z,2.30
2019-06-20T17:45:24.153Z,2.40
2019-06-20T17:48:26.924Z,2.00
2019-06-20T17:51:29.676Z,2.10
2019-06-20T17:54:32.887Z,2.37
2019-06-20T17:57:36.001Z,2.40
2019-06-20T18:00:40.880Z,2.65
2019-06-20T18:03:44.088Z,2.58
2019-06-20T18:06:47.465Z,2.50
2019-06-20T18:09:53.708Z,2.52
2019-06-20T18:12:56.401Z,2.27
2019-06-20T18:15:59.275Z,2.37
2019-06-20T18:19:02.048Z,2.30
2019-06-20T18:22:06.199Z,2.50
2019-06-20T18:25:31.630Z,2.47
2019-06-20T18:28:33.432Z,2.58
2019-06-20T18:31:36.599Z,2.30
2019-06-20T18:34:39.502Z,2.30
2019-06-20T18:37:42.346Z,2.15
2019-06-20T18:40:45.659Z,2.80
2019-06-20T18:43:48.593Z,2.80
2019-06-20T18:46:51.594Z,2.65
2019-06-20T18:49:54.547Z,2.58
2019-06-20T18:52:57.334Z,2.85
2019-06-20T18:56:00.301Z,2.60
2019-06-20T18:59:05.200Z,2.90
2019-06-20T19:02:08.307Z,3.10
2019-06-20T19:05:11.878Z,3.10
2019-06-20T19:08:14.951Z,3.02
2019-06-20T19:11:18.851Z,2.90
2019-06-20T19:14:21.840Z,3.25
2019-06-20T19:17:24.758Z,3.55
2019-06-20T19:20:27.740Z,3.17
2019-06-20T19:23:30.657Z,3.30
2019-06-20T19:26:33.570Z,3.40
2019-06-20T19:29:36.608Z,3.80
2019-06-20T19:32:39.526Z,3.60
2019-06-20T19:35:42.446Z,3.70
2019-06-20T19:38:45.527Z,3.45
2019-06-20T19:41:48.565Z,3.72
2019-06-20T19:44:51.512Z,3.65
2019-06-20T19:47:54.423Z,3.62
2019-06-20T19:50:57.348Z,3.85
2019-06-20T19:54:00.272Z,3.98
2019-06-20T19:57:03.317Z,4.17
2019-06-20T20:00:07.174Z,3.98
2019-06-20T20:03:10.388Z,4.15
2019-06-20T20:06:13.295Z,4.20
2019-06-20T20:09:16.229Z,4.33
2019-06-20T20:12:19.137Z,4.37
2019-06-20T20:15:22.073Z,5.05
2019-06-20T20:18:24.960Z,4.20
2019-06-20T20:21:28.343Z,4.87
2019-06-20T20:24:32.254Z,4.72
2019-06-20T20:27:35.697Z,4.50
2019-06-20T20:30:38.651Z,4.90
2019-06-20T20:33:41.553Z,4.53
2019-06-20T20:36:44.344Z,5.03
2019-06-20T20:39:47.240Z,5.15
2019-06-20T20:42:50.094Z,5.20
2019-06-20T20:45:52.904Z,5.45
2019-06-20T20:48:55.862Z,4.70
2019-06-20T20:51:58.895Z,5.12
2019-06-20T20:55:14.319Z,4.70
2019-06-20T20:58:17.577Z,4.92
2019-06-20T21:01:29.117Z,5.50
2019-06-20T21:04:44.325Z,5.08
2019-06-20T21:07:47.555Z,5.35
2019-06-20T21:10:50.728Z,5.90
2019-06-20T21:13:54.020Z,5.58
2019-06-20T21:16:57.993Z,6.15
2019-06-20T21:20:01.155Z,5.70
2019-06-20T21:23:04.639Z,5.67
2019-06-20T21:26:07.729Z,6.60
2019-06-20T21:29:10.930Z,6.72
2019-06-20T21:32:15.828Z,6.55
2019-06-20T21:35:19.164Z,6.17
2019-06-20T21:38:22.353Z,6.40
2019-06-20T21:41:25.523Z,5.92
2019-06-20T21:44:28.666Z,6.53
2019-06-20T21:47:32.119Z,6.15
2019-06-20T21:50:35.367Z,6.10
2019-06-20T21:53:38.531Z,7.00
2019-06-20T21:56:41.763Z,7.22
2019-06-20T21:59:44.953Z,7.30
2019-06-20T22:02:48.120Z,7.05
2019-06-20T22:05:51.339Z,7.42
2019-06-20T22:08:54.591Z,7.50
2019-06-20T22:11:57.887Z,7.92
2019-06-20T22:15:01.284Z,8.83
2019-06-20T22:18:04.711Z,8.88
2019-06-20T22:21:09.308Z,8.38
2019-06-20T22:24:12.515Z,8.10
2019-06-20T22:27:15.940Z,8.55
2019-06-20T22:30:36.003Z,8.80
2019-06-20T22:33:40.404Z,8.60
2019-06-20T22:36:43.885Z,9.10
2019-06-20T22:39:47.191Z,9.08
2019-06-20T22:42:52.491Z,9.30
2019-06-20T22:45:55.611Z,9.45
2019-06-20T22:48:58.823Z,9.70
2019-06-20T22:52:02.261Z,9.80
2019-06-20T22:55:05.996Z,9.60
2019-06-20T22:58:09.165Z,9.68
2019-06-20T23:01:12.279Z,9.93
2019-06-20T23:04:15.443Z,11.18
2019-06-20T23:07:18.861Z,10.50
2019-06-20T23:10:22.050Z,12.70
2019-06-20T23:13:25.219Z,13.20
2019-06-20T23:16:28.393Z,13.80
2019-06-20T23:19:31.527Z,14.43
2019-06-20T23:22:34.658Z,15.43
2019-06-20T23:25:39.747Z,15.28
2019-06-20T23:28:47.725Z,14.40
2019-06-20T23:31:51.614Z,14.18
2019-06-20T23:34:57.492Z,15.95
2019-06-20T23:38:00.638Z,16.37
2019-06-20T23:41:03.850Z,15.25
2019-06-20T23:44:08.160Z,14.68
2019-06-20T23:47:11.264Z,13.58
2019-06-20T23:50:20.616Z,14.90
2019-06-20T23:53:25.710Z,14.58
2019-06-20T23:56:28.863Z,14.35
2019-06-20T23:59:31.901Z,16.15
